sensor_id;sensor_type;location;lat;lon;timestamp;temperature;humidity
35603;DHT22;21725;50.836;4.368;2023-12-29T00:02:19;12.30;99.90
35603;DHT22;21725;50.836;4.368;2023-12-29T00:05:19;12.30;99.90
35603;DHT22;21725;50.836;4.368;2023-12-29T00:08:20;12.20;99.90
35603;DHT22;21725;50.836;4.368;2023-12-29T00:11:21;12.30;99.90
35603;DHT22;21725;50.836;4.368;2023-12-29T00:14:22;12.20;99.90
35603;DHT22;21725;50.836;4.368;2023-12-29T00:17:23;12.40;99.90
35603;DHT22;21725;50.836;4.368;2023-12-29T00:20:23;12.20;99.90
35603;DHT22;21725;50.836;4.368;2023-12-29T00:23:24;12.20;99.90
35603;DHT22;21725;50.836;4.368;2023-12-29T00:26:25;12.00;99.90
35603;DHT22;21725;50.836;4.368;2023-12-29T00:29:26;12.10;99.90
35603;DHT22;21725;50.836;4.368;2023-12-29T00:32:28;12.20;99.90
35603;DHT22;21725;50.836;4.368;2023-12-29T00:35:29;12.20;99.90
35603;DHT22;21725;50.836;4.368;2023-12-29T00:38:29;12.20;99.90
35603;DHT22;21725;50.836;4.368;2023-12-29T00:41:32;12.20;99.90
35603;DHT22;21725;50.836;4.368;2023-12-29T00:44:33;11.90;99.90
35603;DHT22;21725;50.836;4.368;2023-12-29T00:47:34;11.70;99.90
35603;DHT22;21725;50.836;4.368;2023-12-29T00:50:34;11.70;99.90
35603;DHT22;21725;50.836;4.368;2023-12-29T00:53:35;12.00;99.90
35603;DHT22;21725;50.836;4.368;2023-12-29T00:56:36;12.10;99.90
35603;DHT22;21725;50.836;4.368;2023-12-29T00:59:37;12.00;99.90
35603;DHT22;21725;50.836;4.368;2023-12-29T01:02:41;12.10;99.90
35603;DHT22;21725;50.836;4.368;2023-12-29T01:05:42;12.00;99.90
35603;DHT22;21725;50.836;4.368;2023-12-29T01:08:42;12.00;99.90
35603;DHT22;21725;50.836;4.368;2023-12-29T01:11:43;12.20;99.90
35603;DHT22;21725;50.836;4.368;2023-12-29T01:14:44;12.20;99.90
35603;DHT22;21725;50.836;4.368;2023-12-29T01:17:44;12.00;99.90
35603;DHT22;21725;50.836;4.368;2023-12-29T01:20:45;12.10;99.90
35603;DHT22;21725;50.836;4.368;2023-12-29T01:23:46;12.20;99.90
35603;DHT22;21725;50.836;4.368;2023-12-29T01:26:47;12.10;99.90
35603;DHT22;21725;50.836;4.368;2023-12-29T01:29:47;12.10;99.90
35603;DHT22;21725;50.836;4.368;2023-12-29T01:32:48;12.00;99.90
35603;DHT22;21725;50.836;4.368;2023-12-29T01:35:49;12.20;99.90
35603;DHT22;21725;50.836;4.368;2023-12-29T01:38:49;12.30;99.90
35603;DHT22;21725;50.836;4.368;2023-12-29T01:41:50;12.30;99.90
35603;DHT22;21725;50.836;4.368;2023-12-29T01:44:51;12.30;99.90
35603;DHT22;21725;50.836;4.368;2023-12-29T01:47:54;12.40;99.90
35603;DHT22;21725;50.836;4.368;2023-12-29T01:50:55;12.40;99.90
35603;DHT22;21725;50.836;4.368;2023-12-29T01:53:57;12.30;99.90
35603;DHT22;21725;50.836;4.368;2023-12-29T01:56:59;12.50;99.90
35603;DHT22;21725;50.836;4.368;2023-12-29T02:00:01;12.30;99.90
35603;DHT22;21725;50.836;4.368;2023-12-29T02:03:02;12.30;99.90
35603;DHT22;21725;50.836;4.368;2023-12-29T02:06:05;12.30;99.90
35603;DHT22;21725;50.836;4.368;2023-12-29T02:09:06;12.30;99.90
35603;DHT22;21725;50.836;4.368;2023-12-29T02:12:07;12.40;99.90
35603;DHT22;21725;50.836;4.368;2023-12-29T02:15:08;12.40;99.90
35603;DHT22;21725;50.836;4.368;2023-12-29T02:18:12;12.50;99.90
35603;DHT22;21725;50.836;4.368;2023-12-29T02:21:15;12.50;99.90
35603;DHT22;21725;50.836;4.368;2023-12-29T02:24:16;12.30;99.90
35603;DHT22;21725;50.836;4.368;2023-12-29T02:27:29;12.40;99.90
35603;DHT22;21725;50.836;4.368;2023-12-29T02:33:45;12.10;99.90
35603;DHT22;21725;50.836;4.368;2023-12-29T02:36:46;12.10;99.90
35603;DHT22;21725;50.836;4.368;2023-12-29T02:39:48;12.20;99.90
35603;DHT22;21725;50.836;4.368;2023-12-29T02:42:49;12.20;99.90
35603;DHT22;21725;50.836;4.368;2023-12-29T02:45:50;12.10;99.90
35603;DHT22;21725;50.836;4.368;2023-12-29T02:48:50;12.10;99.90
35603;DHT22;21725;50.836;4.368;2023-12-29T02:51:51;12.10;99.90
35603;DHT22;21725;50.836;4.368;2023-12-29T02:54:52;12.10;99.90
35603;DHT22;21725;50.836;4.368;2023-12-29T02:57:52;12.10;99.90
35603;DHT22;21725;50.836;4.368;2023-12-29T03:00:53;12.00;99.90
35603;DHT22;21725;50.836;4.368;2023-12-29T03:03:54;12.00;99.90
35603;DHT22;21725;50.836;4.368;2023-12-29T03:06:55;12.00;99.90
35603;DHT22;21725;50.836;4.368;2023-12-29T03:09:56;12.10;99.90
35603;DHT22;21725;50.836;4.368;2023-12-29T03:12:58;12.00;99.90
35603;DHT22;21725;50.836;4.368;2023-12-29T03:15:58;12.10;99.90
35603;DHT22;21725;50.836;4.368;2023-12-29T03:18:59;12.20;99.90
35603;DHT22;21725;50.836;4.368;2023-12-29T03:22:00;12.20;99.90
35603;DHT22;21725;50.836;4.368;2023-12-29T03:25:00;12.20;99.90
35603;DHT22;21725;50.836;4.368;2023-12-29T03:28:01;12.20;99.90
35603;DHT22;21725;50.836;4.368;2023-12-29T03:31:02;12.20;99.90
35603;DHT22;21725;50.836;4.368;2023-12-29T03:34:03;12.10;99.90
35603;DHT22;21725;50.836;4.368;2023-12-29T03:37:04;12.00;99.90
35603;DHT22;21725;50.836;4.368;2023-12-29T03:40:05;11.90;99.90
35603;DHT22;21725;50.836;4.368;2023-12-29T03:43:06;11.90;99.90
35603;DHT22;21725;50.836;4.368;2023-12-29T03:46:18;12.00;99.90
35603;DHT22;21725;50.836;4.368;2023-12-29T03:49:19;12.00;99.90
35603;DHT22;21725;50.836;4.368;2023-12-29T03:52:22;12.00;99.90
35603;DHT22;21725;50.836;4.368;2023-12-29T03:55:23;12.00;99.90
35603;DHT22;21725;50.836;4.368;2023-12-29T03:58:24;11.80;99.90
35603;DHT22;21725;50.836;4.368;2023-12-29T04:01:25;11.90;99.90
35603;DHT22;21725;50.836;4.368;2023-12-29T04:04:25;11.90;99.90
35603;DHT22;21725;50.836;4.368;2023-12-29T04:07:26;11.90;99.90
35603;DHT22;21725;50.836;4.368;2023-12-29T04:10:27;11.80;99.90
35603;DHT22;21725;50.836;4.368;2023-12-29T04:13:27;11.80;99.90
35603;DHT22;21725;50.836;4.368;2023-12-29T04:16:28;11.90;99.90
35603;DHT22;21725;50.836;4.368;2023-12-29T04:19:29;12.00;99.90
35603;DHT22;21725;50.836;4.368;2023-12-29T04:22:30;11.90;99.90
35603;DHT22;21725;50.836;4.368;2023-12-29T04:25:30;11.70;99.90
35603;DHT22;21725;50.836;4.368;2023-12-29T04:28:31;11.70;99.90
35603;DHT22;21725;50.836;4.368;2023-12-29T04:31:32;11.80;99.90
35603;DHT22;21725;50.836;4.368;2023-12-29T04:34:32;11.80;99.90
35603;DHT22;21725;50.836;4.368;2023-12-29T04:37:33;11.90;99.90
35603;DHT22;21725;50.836;4.368;2023-12-29T04:40:34;11.90;99.90
35603;DHT22;21725;50.836;4.368;2023-12-29T04:43:35;11.80;99.90
35603;DHT22;21725;50.836;4.368;2023-12-29T04:46:35;11.90;99.90
35603;DHT22;21725;50.836;4.368;2023-12-29T04:49:36;12.00;99.90
35603;DHT22;21725;50.836;4.368;2023-12-29T04:52:37;12.10;99.90
35603;DHT22;21725;50.836;4.368;2023-12-29T04:55:37;12.00;99.90
35603;DHT22;21725;50.836;4.368;2023-12-29T04:58:38;12.10;99.90
35603;DHT22;21725;50.836;4.368;2023-12-29T05:01:39;11.80;99.90
35603;DHT22;21725;50.836;4.368;2023-12-29T05:04:40;11.70;99.90
35603;DHT22;21725;50.836;4.368;2023-12-29T05:07:40;11.70;99.90
35603;DHT22;21725;50.836;4.368;2023-12-29T05:10:41;11.70;99.90
35603;DHT22;21725;50.836;4.368;2023-12-29T05:13:42;11.80;99.90
35603;DHT22;21725;50.836;4.368;2023-12-29T05:16:42;11.70;99.90
35603;DHT22;21725;50.836;4.368;2023-12-29T05:19:43;11.70;99.90
35603;DHT22;21725;50.836;4.368;2023-12-29T05:22:44;11.80;99.90
35603;DHT22;21725;50.836;4.368;2023-12-29T05:25:45;12.00;99.90
35603;DHT22;21725;50.836;4.368;2023-12-29T05:28:45;11.90;99.90
35603;DHT22;21725;50.836;4.368;2023-12-29T05:31:46;11.90;99.90
35603;DHT22;21725;50.836;4.368;2023-12-29T05:34:47;12.00;99.90
35603;DHT22;21725;50.836;4.368;2023-12-29T05:37:47;12.00;99.90
35603;DHT22;21725;50.836;4.368;2023-12-29T05:40:48;12.00;99.90
35603;DHT22;21725;50.836;4.368;2023-12-29T05:43:49;12.00;99.90
35603;DHT22;21725;50.836;4.368;2023-12-29T05:46:49;11.90;99.90
35603;DHT22;21725;50.836;4.368;2023-12-29T05:49:51;11.90;99.90
35603;DHT22;21725;50.836;4.368;2023-12-29T05:52:52;12.00;99.90
35603;DHT22;21725;50.836;4.368;2023-12-29T05:55:52;12.00;99.90
35603;DHT22;21725;50.836;4.368;2023-12-29T05:58:53;11.80;99.90
35603;DHT22;21725;50.836;4.368;2023-12-29T06:01:54;11.80;99.90
35603;DHT22;21725;50.836;4.368;2023-12-29T06:04:55;11.70;99.90
35603;DHT22;21725;50.836;4.368;2023-12-29T06:07:56;11.60;99.90
35603;DHT22;21725;50.836;4.368;2023-12-29T06:10:56;11.50;99.90
35603;DHT22;21725;50.836;4.368;2023-12-29T06:13:57;11.30;99.90
35603;DHT22;21725;50.836;4.368;2023-12-29T06:16:58;11.40;99.90
35603;DHT22;21725;50.836;4.368;2023-12-29T06:19:59;11.40;99.90
35603;DHT22;21725;50.836;4.368;2023-12-29T06:22:59;11.50;99.90
35603;DHT22;21725;50.836;4.368;2023-12-29T06:26:01;11.60;99.90
35603;DHT22;21725;50.836;4.368;2023-12-29T06:29:01;11.60;99.90
35603;DHT22;21725;50.836;4.368;2023-12-29T06:32:03;11.60;99.90
35603;DHT22;21725;50.836;4.368;2023-12-29T06:35:04;11.50;99.90
35603;DHT22;21725;50.836;4.368;2023-12-29T06:38:05;11.70;99.90
35603;DHT22;21725;50.836;4.368;2023-12-29T06:41:06;11.70;99.90
35603;DHT22;21725;50.836;4.368;2023-12-29T06:44:07;11.60;99.90
35603;DHT22;21725;50.836;4.368;2023-12-29T06:47:08;11.50;99.90
35603;DHT22;21725;50.836;4.368;2023-12-29T06:50:09;11.40;99.90
35603;DHT22;21725;50.836;4.368;2023-12-29T06:53:13;11.30;99.90
35603;DHT22;21725;50.836;4.368;2023-12-29T06:56:17;11.50;99.90
35603;DHT22;21725;50.836;4.368;2023-12-29T06:59:22;11.50;99.90
35603;DHT22;21725;50.836;4.368;2023-12-29T07:02:23;11.50;99.90
35603;DHT22;21725;50.836;4.368;2023-12-29T07:05:23;11.50;99.90
35603;DHT22;21725;50.836;4.368;2023-12-29T07:08:24;11.50;99.90
35603;DHT22;21725;50.836;4.368;2023-12-29T07:11:25;11.70;99.90
35603;DHT22;21725;50.836;4.368;2023-12-29T07:14:25;11.70;99.90
35603;DHT22;21725;50.836;4.368;2023-12-29T07:17:26;11.60;99.90
35603;DHT22;21725;50.836;4.368;2023-12-29T07:20:27;11.50;99.90
35603;DHT22;21725;50.836;4.368;2023-12-29T07:23:27;11.40;99.90
35603;DHT22;21725;50.836;4.368;2023-12-29T07:26:28;11.40;99.90
35603;DHT22;21725;50.836;4.368;2023-12-29T07:29:29;11.40;99.90
35603;DHT22;21725;50.836;4.368;2023-12-29T07:32:30;11.60;99.90
35603;DHT22;21725;50.836;4.368;2023-12-29T07:35:30;11.80;99.90
35603;DHT22;21725;50.836;4.368;2023-12-29T07:38:31;11.80;99.90
35603;DHT22;21725;50.836;4.368;2023-12-29T07:41:32;11.90;99.90
35603;DHT22;21725;50.836;4.368;2023-12-29T07:44:32;12.00;99.90
35603;DHT22;21725;50.836;4.368;2023-12-29T07:47:33;12.10;99.90
35603;DHT22;21725;50.836;4.368;2023-12-29T07:50:34;12.10;99.90
35603;DHT22;21725;50.836;4.368;2023-12-29T07:53:35;12.00;99.90
35603;DHT22;21725;50.836;4.368;2023-12-29T07:56:35;11.80;99.90
35603;DHT22;21725;50.836;4.368;2023-12-29T07:59:37;11.90;99.90
35603;DHT22;21725;50.836;4.368;2023-12-29T08:02:38;11.90;99.90
35603;DHT22;21725;50.836;4.368;2023-12-29T08:05:39;11.80;99.90
35603;DHT22;21725;50.836;4.368;2023-12-29T08:08:40;11.70;99.90
35603;DHT22;21725;50.836;4.368;2023-12-29T08:11:41;11.70;99.90
35603;DHT22;21725;50.836;4.368;2023-12-29T08:14:43;11.60;99.90
35603;DHT22;21725;50.836;4.368;2023-12-29T08:17:44;11.50;99.90
35603;DHT22;21725;50.836;4.368;2023-12-29T08:20:44;11.50;99.90
35603;DHT22;21725;50.836;4.368;2023-12-29T08:23:46;11.50;99.90
35603;DHT22;21725;50.836;4.368;2023-12-29T08:26:47;11.60;99.90
35603;DHT22;21725;50.836;4.368;2023-12-29T08:29:48;11.70;99.90
35603;DHT22;21725;50.836;4.368;2023-12-29T08:32:49;11.80;99.90
35603;DHT22;21725;50.836;4.368;2023-12-29T08:35:50;11.80;99.90
35603;DHT22;21725;50.836;4.368;2023-12-29T08:38:51;11.80;99.90
35603;DHT22;21725;50.836;4.368;2023-12-29T08:41:53;11.80;99.90
35603;DHT22;21725;50.836;4.368;2023-12-29T08:44:54;12.00;99.90
35603;DHT22;21725;50.836;4.368;2023-12-29T08:47:54;11.00;99.90
35603;DHT22;21725;50.836;4.368;2023-12-29T08:50:55;12.00;99.90
35603;DHT22;21725;50.836;4.368;2023-12-29T08:53:56;12.00;99.90
35603;DHT22;21725;50.836;4.368;2023-12-29T08:56:56;12.00;99.90
35603;DHT22;21725;50.836;4.368;2023-12-29T08:59:57;11.90;99.90
35603;DHT22;21725;50.836;4.368;2023-12-29T09:02:58;11.70;99.90
35603;DHT22;21725;50.836;4.368;2023-12-29T09:05:59;11.70;99.90
35603;DHT22;21725;50.836;4.368;2023-12-29T09:09:01;11.80;99.90
35603;DHT22;21725;50.836;4.368;2023-12-29T09:12:02;11.80;99.90
35603;DHT22;21725;50.836;4.368;2023-12-29T09:15:03;11.90;99.90
35603;DHT22;21725;50.836;4.368;2023-12-29T09:18:05;12.00;99.90
35603;DHT22;21725;50.836;4.368;2023-12-29T09:21:06;12.10;99.90
35603;DHT22;21725;50.836;4.368;2023-12-29T09:24:07;12.00;99.90
35603;DHT22;21725;50.836;4.368;2023-12-29T09:27:08;12.00;99.90
35603;DHT22;21725;50.836;4.368;2023-12-29T09:30:09;12.00;99.90
35603;DHT22;21725;50.836;4.368;2023-12-29T09:33:10;12.10;99.90
35603;DHT22;21725;50.836;4.368;2023-12-29T09:36:12;12.20;99.90
35603;DHT22;21725;50.836;4.368;2023-12-29T09:39:13;12.30;99.90
35603;DHT22;21725;50.836;4.368;2023-12-29T09:42:20;12.50;99.90
35603;DHT22;21725;50.836;4.368;2023-12-29T09:45:24;12.00;99.90
35603;DHT22;21725;50.836;4.368;2023-12-29T09:48:27;12.50;99.90
35603;DHT22;21725;50.836;4.368;2023-12-29T09:51:28;12.40;99.90
35603;DHT22;21725;50.836;4.368;2023-12-29T09:54:31;12.60;99.90
35603;DHT22;21725;50.836;4.368;2023-12-29T09:57:33;12.70;99.90
35603;DHT22;21725;50.836;4.368;2023-12-29T10:00:34;12.50;99.90
35603;DHT22;21725;50.836;4.368;2023-12-29T10:03:35;12.40;99.90
35603;DHT22;21725;50.836;4.368;2023-12-29T10:06:36;12.30;99.90
35603;DHT22;21725;50.836;4.368;2023-12-29T10:09:39;12.30;99.90
35603;DHT22;21725;50.836;4.368;2023-12-29T10:12:41;12.20;99.90
35603;DHT22;21725;50.836;4.368;2023-12-29T10:15:50;12.30;99.90
35603;DHT22;21725;50.836;4.368;2023-12-29T10:22:35;12.30;99.90
35603;DHT22;21725;50.836;4.368;2023-12-29T10:25:39;12.30;99.90
35603;DHT22;21725;50.836;4.368;2023-12-29T10:28:41;12.50;99.90
35603;DHT22;21725;50.836;4.368;2023-12-29T10:31:42;12.50;99.90
35603;DHT22;21725;50.836;4.368;2023-12-29T10:34:42;12.40;99.90
35603;DHT22;21725;50.836;4.368;2023-12-29T10:37:43;12.50;99.90
35603;DHT22;21725;50.836;4.368;2023-12-29T10:40:44;12.40;99.90
35603;DHT22;21725;50.836;4.368;2023-12-29T10:43:46;12.30;99.90
35603;DHT22;21725;50.836;4.368;2023-12-29T10:46:55;12.10;99.90
35603;DHT22;21725;50.836;4.368;2023-12-29T10:49:59;12.10;99.90
35603;DHT22;21725;50.836;4.368;2023-12-29T10:53:12;12.30;99.90
35603;DHT22;21725;50.836;4.368;2023-12-29T10:56:19;12.60;99.90
35603;DHT22;21725;50.836;4.368;2023-12-29T10:59:22;12.70;99.90
35603;DHT22;21725;50.836;4.368;2023-12-29T11:02:23;12.60;99.90
35603;DHT22;21725;50.836;4.368;2023-12-29T11:05:27;12.50;99.90
35603;DHT22;21725;50.836;4.368;2023-12-29T11:08:28;12.40;99.90
35603;DHT22;21725;50.836;4.368;2023-12-29T11:11:29;12.50;99.90
35603;DHT22;21725;50.836;4.368;2023-12-29T11:14:30;12.40;99.90
35603;DHT22;21725;50.836;4.368;2023-12-29T11:17:33;12.50;99.90
35603;DHT22;21725;50.836;4.368;2023-12-29T11:20:34;12.70;99.90
35603;DHT22;21725;50.836;4.368;2023-12-29T11:23:36;12.50;99.90
35603;DHT22;21725;50.836;4.368;2023-12-29T11:26:38;12.40;99.90
35603;DHT22;21725;50.836;4.368;2023-12-29T11:29:42;12.50;99.90
35603;DHT22;21725;50.836;4.368;2023-12-29T11:32:53;12.70;99.90
35603;DHT22;21725;50.836;4.368;2023-12-29T11:36:13;12.80;99.90
35603;DHT22;21725;50.836;4.368;2023-12-29T11:39:32;12.70;99.90
35603;DHT22;21725;50.836;4.368;2023-12-29T11:42:38;12.60;99.90
35603;DHT22;21725;50.836;4.368;2023-12-29T11:45:40;12.60;99.90
35603;DHT22;21725;50.836;4.368;2023-12-29T11:48:54;12.60;99.90
35603;DHT22;21725;50.836;4.368;2023-12-29T11:51:58;12.60;99.90
35603;DHT22;21725;50.836;4.368;2023-12-29T11:55:12;12.70;99.90
35603;DHT22;21725;50.836;4.368;2023-12-29T11:58:26;12.70;99.90
35603;DHT22;21725;50.836;4.368;2023-12-29T12:01:34;12.50;99.90
35603;DHT22;21725;50.836;4.368;2023-12-29T12:04:39;12.30;99.90
35603;DHT22;21725;50.836;4.368;2023-12-29T12:10:41;12.40;99.90
35603;DHT22;21725;50.836;4.368;2023-12-29T12:13:45;12.30;99.90
35603;DHT22;21725;50.836;4.368;2023-12-29T12:16:50;12.20;99.90
35603;DHT22;21725;50.836;4.368;2023-12-29T12:20:06;12.30;99.90
35603;DHT22;21725;50.836;4.368;2023-12-29T12:23:19;12.30;99.90
35603;DHT22;21725;50.836;4.368;2023-12-29T12:26:22;12.40;99.90
35603;DHT22;21725;50.836;4.368;2023-12-29T12:29:26;12.30;99.90
35603;DHT22;21725;50.836;4.368;2023-12-29T12:32:28;12.40;99.90
35603;DHT22;21725;50.836;4.368;2023-12-29T12:35:29;12.40;99.90
35603;DHT22;21725;50.836;4.368;2023-12-29T12:38:30;12.60;99.90
35603;DHT22;21725;50.836;4.368;2023-12-29T12:41:34;12.40;99.90
35603;DHT22;21725;50.836;4.368;2023-12-29T12:44:38;12.60;99.90
35603;DHT22;21725;50.836;4.368;2023-12-29T12:47:45;12.60;99.90
35603;DHT22;21725;50.836;4.368;2023-12-29T12:50:50;12.60;99.90
35603;DHT22;21725;50.836;4.368;2023-12-29T12:53:51;12.40;99.90
35603;DHT22;21725;50.836;4.368;2023-12-29T12:56:54;12.20;99.90
35603;DHT22;21725;50.836;4.368;2023-12-29T12:59:56;12.10;99.90
35603;DHT22;21725;50.836;4.368;2023-12-29T13:02:56;12.20;99.90
35603;DHT22;21725;50.836;4.368;2023-12-29T13:05:58;12.30;99.90
35603;DHT22;21725;50.836;4.368;2023-12-29T13:09:04;12.40;99.90
35603;DHT22;21725;50.836;4.368;2023-12-29T13:12:13;12.40;99.90
35603;DHT22;21725;50.836;4.368;2023-12-29T13:15:14;12.50;99.90
35603;DHT22;21725;50.836;4.368;2023-12-29T13:18:15;12.40;99.90
35603;DHT22;21725;50.836;4.368;2023-12-29T13:21:17;12.40;99.90
35603;DHT22;21725;50.836;4.368;2023-12-29T13:24:18;12.40;99.90
35603;DHT22;21725;50.836;4.368;2023-12-29T13:27:19;12.60;99.90
35603;DHT22;21725;50.836;4.368;2023-12-29T13:30:21;12.70;99.90
35603;DHT22;21725;50.836;4.368;2023-12-29T13:33:42;12.70;99.90
35603;DHT22;21725;50.836;4.368;2023-12-29T13:43:01;12.60;99.90
35603;DHT22;21725;50.836;4.368;2023-12-29T13:46:03;12.60;99.90
35603;DHT22;21725;50.836;4.368;2023-12-29T13:49:06;12.70;99.90
35603;DHT22;21725;50.836;4.368;2023-12-29T13:52:07;12.60;99.90
35603;DHT22;21725;50.836;4.368;2023-12-29T13:55:08;12.50;99.90
35603;DHT22;21725;50.836;4.368;2023-12-29T13:58:09;12.40;99.90
35603;DHT22;21725;50.836;4.368;2023-12-29T14:01:14;12.40;99.90
35603;DHT22;21725;50.836;4.368;2023-12-29T14:04:15;12.40;99.90
35603;DHT22;21725;50.836;4.368;2023-12-29T14:07:19;12.40;99.90
35603;DHT22;21725;50.836;4.368;2023-12-29T14:10:32;12.50;99.90
35603;DHT22;21725;50.836;4.368;2023-12-29T14:13:33;12.70;99.90
35603;DHT22;21725;50.836;4.368;2023-12-29T14:16:39;12.60;99.90
35603;DHT22;21725;50.836;4.368;2023-12-29T14:19:40;12.40;99.90
35603;DHT22;21725;50.836;4.368;2023-12-29T14:22:41;12.60;99.90
35603;DHT22;21725;50.836;4.368;2023-12-29T14:25:42;12.50;99.90
35603;DHT22;21725;50.836;4.368;2023-12-29T14:28:44;12.60;99.90
35603;DHT22;21725;50.836;4.368;2023-12-29T14:31:45;12.70;99.90
35603;DHT22;21725;50.836;4.368;2023-12-29T14:34:49;12.50;99.90
35603;DHT22;21725;50.836;4.368;2023-12-29T14:37:55;12.30;99.90
35603;DHT22;21725;50.836;4.368;2023-12-29T14:40:56;12.40;99.90
35603;DHT22;21725;50.836;4.368;2023-12-29T14:43:57;12.20;99.90
35603;DHT22;21725;50.836;4.368;2023-12-29T14:46:59;12.30;99.90
35603;DHT22;21725;50.836;4.368;2023-12-29T14:49:59;12.30;99.90
35603;DHT22;21725;50.836;4.368;2023-12-29T14:53:00;12.30;99.90
35603;DHT22;21725;50.836;4.368;2023-12-29T14:56:01;12.30;99.90
35603;DHT22;21725;50.836;4.368;2023-12-29T14:59:02;12.30;99.90
35603;DHT22;21725;50.836;4.368;2023-12-29T15:02:03;12.40;99.90
35603;DHT22;21725;50.836;4.368;2023-12-29T15:05:03;12.50;99.90
35603;DHT22;21725;50.836;4.368;2023-12-29T15:08:04;12.60;99.90
35603;DHT22;21725;50.836;4.368;2023-12-29T15:11:06;12.40;99.90
35603;DHT22;21725;50.836;4.368;2023-12-29T15:14:07;12.20;99.90
35603;DHT22;21725;50.836;4.368;2023-12-29T15:17:08;12.20;99.90
35603;DHT22;21725;50.836;4.368;2023-12-29T15:20:09;12.10;99.90
35603;DHT22;21725;50.836;4.368;2023-12-29T15:23:11;12.10;99.90
35603;DHT22;21725;50.836;4.368;2023-12-29T15:26:12;12.40;99.90
35603;DHT22;21725;50.836;4.368;2023-12-29T15:29:15;12.40;99.90
35603;DHT22;21725;50.836;4.368;2023-12-29T15:32:16;12.50;99.90
35603;DHT22;21725;50.836;4.368;2023-12-29T15:35:17;12.50;99.90
35603;DHT22;21725;50.836;4.368;2023-12-29T15:38:18;12.40;99.90
35603;DHT22;21725;50.836;4.368;2023-12-29T15:41:20;12.50;99.90
35603;DHT22;21725;50.836;4.368;2023-12-29T15:44:21;12.50;99.90
35603;DHT22;21725;50.836;4.368;2023-12-29T15:47:22;12.40;99.90
35603;DHT22;21725;50.836;4.368;2023-12-29T15:50:23;12.40;99.90
35603;DHT22;21725;50.836;4.368;2023-12-29T15:53:23;12.40;99.90
35603;DHT22;21725;50.836;4.368;2023-12-29T15:56:24;12.30;99.90
35603;DHT22;21725;50.836;4.368;2023-12-29T15:59:25;12.20;99.90
35603;DHT22;21725;50.836;4.368;2023-12-29T16:02:26;12.30;99.90
35603;DHT22;21725;50.836;4.368;2023-12-29T16:05:27;12.40;99.90
35603;DHT22;21725;50.836;4.368;2023-12-29T16:08:28;12.30;99.90
35603;DHT22;21725;50.836;4.368;2023-12-29T16:11:29;12.20;99.90
35603;DHT22;21725;50.836;4.368;2023-12-29T16:14:30;12.10;99.90
35603;DHT22;21725;50.836;4.368;2023-12-29T16:17:31;12.10;99.90
35603;DHT22;21725;50.836;4.368;2023-12-29T16:20:31;12.20;99.90
35603;DHT22;21725;50.836;4.368;2023-12-29T16:23:32;12.10;99.90
35603;DHT22;21725;50.836;4.368;2023-12-29T16:26:33;12.10;99.90
35603;DHT22;21725;50.836;4.368;2023-12-29T16:29:34;12.30;99.90
35603;DHT22;21725;50.836;4.368;2023-12-29T16:32:35;12.30;99.90
35603;DHT22;21725;50.836;4.368;2023-12-29T16:35:36;12.10;99.90
35603;DHT22;21725;50.836;4.368;2023-12-29T16:38:37;12.10;99.90
35603;DHT22;21725;50.836;4.368;2023-12-29T16:41:43;12.30;99.90
35603;DHT22;21725;50.836;4.368;2023-12-29T16:44:44;12.30;99.90
35603;DHT22;21725;50.836;4.368;2023-12-29T16:47:45;12.20;99.90
35603;DHT22;21725;50.836;4.368;2023-12-29T16:50:46;12.30;99.90
35603;DHT22;21725;50.836;4.368;2023-12-29T16:53:46;12.50;99.90
35603;DHT22;21725;50.836;4.368;2023-12-29T16:56:47;12.50;99.90
35603;DHT22;21725;50.836;4.368;2023-12-29T16:59:49;12.30;99.90
35603;DHT22;21725;50.836;4.368;2023-12-29T17:02:50;12.30;99.90
35603;DHT22;21725;50.836;4.368;2023-12-29T17:05:50;12.10;99.90
35603;DHT22;21725;50.836;4.368;2023-12-29T17:08:52;12.10;99.90
35603;DHT22;21725;50.836;4.368;2023-12-29T17:11:52;12.30;99.90
35603;DHT22;21725;50.836;4.368;2023-12-29T17:14:53;12.30;99.90
35603;DHT22;21725;50.836;4.368;2023-12-29T17:17:55;12.40;99.90
35603;DHT22;21725;50.836;4.368;2023-12-29T17:20:56;12.40;99.90
35603;DHT22;21725;50.836;4.368;2023-12-29T17:23:57;12.40;99.90
35603;DHT22;21725;50.836;4.368;2023-12-29T17:26:57;12.30;99.90
35603;DHT22;21725;50.836;4.368;2023-12-29T17:29:58;12.30;99.90
35603;DHT22;21725;50.836;4.368;2023-12-29T17:32:59;12.30;99.90
35603;DHT22;21725;50.836;4.368;2023-12-29T17:35:59;12.30;99.90
35603;DHT22;21725;50.836;4.368;2023-12-29T17:39:00;12.30;99.90
35603;DHT22;21725;50.836;4.368;2023-12-29T17:42:01;13.80;99.90
35603;DHT22;21725;50.836;4.368;2023-12-29T17:45:02;12.30;99.90
35603;DHT22;21725;50.836;4.368;2023-12-29T17:48:05;12.30;99.90
35603;DHT22;21725;50.836;4.368;2023-12-29T17:51:06;12.20;99.90
35603;DHT22;21725;50.836;4.368;2023-12-29T17:54:09;11.90;99.90
35603;DHT22;21725;50.836;4.368;2023-12-29T17:57:09;11.80;99.90
35603;DHT22;21725;50.836;4.368;2023-12-29T18:00:10;11.90;99.90
35603;DHT22;21725;50.836;4.368;2023-12-29T18:03:11;11.90;99.90
35603;DHT22;21725;50.836;4.368;2023-12-29T18:06:13;11.90;99.90
35603;DHT22;21725;50.836;4.368;2023-12-29T18:09:14;11.80;99.90
35603;DHT22;21725;50.836;4.368;2023-12-29T18:12:15;12.00;99.90
35603;DHT22;21725;50.836;4.368;2023-12-29T18:15:16;11.80;99.90
35603;DHT22;21725;50.836;4.368;2023-12-29T18:18:17;11.80;99.90
35603;DHT22;21725;50.836;4.368;2023-12-29T18:21:18;11.90;99.90
35603;DHT22;21725;50.836;4.368;2023-12-29T18:24:18;12.00;99.90
35603;DHT22;21725;50.836;4.368;2023-12-29T18:27:19;11.90;99.90
35603;DHT22;21725;50.836;4.368;2023-12-29T18:30:20;11.80;99.90
35603;DHT22;21725;50.836;4.368;2023-12-29T18:33:20;11.80;99.90
35603;DHT22;21725;50.836;4.368;2023-12-29T18:36:21;11.80;99.90
35603;DHT22;21725;50.836;4.368;2023-12-29T18:39:22;11.80;99.90
35603;DHT22;21725;50.836;4.368;2023-12-29T18:42:22;11.80;99.90
35603;DHT22;21725;50.836;4.368;2023-12-29T18:45:23;13.50;99.90
35603;DHT22;21725;50.836;4.368;2023-12-29T18:48:24;11.80;99.90
35603;DHT22;21725;50.836;4.368;2023-12-29T18:51:25;11.80;99.90
35603;DHT22;21725;50.836;4.368;2023-12-29T18:54:25;11.70;99.90
35603;DHT22;21725;50.836;4.368;2023-12-29T18:57:32;11.60;99.90
35603;DHT22;21725;50.836;4.368;2023-12-29T19:00:33;11.70;99.90
35603;DHT22;21725;50.836;4.368;2023-12-29T19:03:34;11.60;99.90
35603;DHT22;21725;50.836;4.368;2023-12-29T19:06:35;11.50;99.90
35603;DHT22;21725;50.836;4.368;2023-12-29T19:09:36;11.50;99.90
35603;DHT22;21725;50.836;4.368;2023-12-29T19:12:38;11.60;99.90
35603;DHT22;21725;50.836;4.368;2023-12-29T19:15:39;11.50;99.90
35603;DHT22;21725;50.836;4.368;2023-12-29T19:18:40;11.60;99.90
35603;DHT22;21725;50.836;4.368;2023-12-29T19:21:41;11.60;99.90
35603;DHT22;21725;50.836;4.368;2023-12-29T19:24:46;11.50;99.90